World of Logs combat log analyzer allows gamers to save, share and analyze their raiding experiences conveniently and thoroughly in the Blizzard MMO World of Warcraft. If you're new here, make sure you check out the tour for a 1 minute introduction. If you have any questions, we're happy to answer them on the forums.

DPS HPS
Odyn
Helya
Guarm
Reports for Durumu the Forgotten - statistics
# Date Time Damage DPS Guild Realm
1 23 May 2013 03:41 812.69M 3665094.3 Big Crits US-Sen'jin
2 29 May 2013 03:58 808.27M 3386511.4 Bovine Intervention EU-Khadgar
3 21 May 2013 04:00 813.44M 3387686.2 Vivid US-Illidan
4 02 Jun 2013 04:00 812.21M 3382012.0 E X O D U S EU-Aggramar
5 22 May 2013 04:02 807.86M 3333386.8 Peachy Keen US-Stormreaver
6 07 May 2013 04:06 809.47M 3278758.3 Kilzeta US-Eredar
7 26 May 2013 04:07 816.21M 3294637.1 Electric Sheep US-Kargath
8 08 Sep 2013 04:08 806.24M 3248274.0 The Wyld Hunt EU-Argent Dawn
9 29 May 2013 04:08 810.37M 3259213.4 Did it for Whitney US-Thrall
10 28 May 2013 04:10 810.26M 3240824.3 Paradigm Shift US-Stormrage
11 28 May 2013 04:10 810.26M 3240707.7 Paradigm Shift US-Stormrage
12 28 May 2013 04:10 810.33M 3240780.3 Paradigm Shift US-Stormrage
13 01 Sep 2013 04:11 813.44M 3238383.8 The Wyld Hunt EU-Argent Dawn
14 15 May 2013 04:11 812.09M 3223172.7 Despair EU-Kazzak
15 05 Jun 2013 04:12 810.07M 3205520.6 Conviction EU-Arathor
16 30 May 2013 04:13 813.40M 3207972.7 Conviction EU-Arathor
17 23 May 2013 04:13 809.23M 3189993.6 Варыч EU-Ревущий фьорд
18 06 May 2013 04:13 807.86M 3182022.9 Method EU-Twisting Nether
19 21 May 2013 04:13 808.53M 3184465.1 Requiem US-Drenden
20 02 Jun 2013 04:14 809.65M 3181136.5 Toca do Goblin US-Azralon
21 05 Jul 2013 04:16 806.76M 3151307.6 Malevolence US-Azralon
22 02 Jun 2013 04:16 814.12M 3168661.8 BNG EU-Blackrock
23 29 May 2013 04:18 813.12M 3145203.5 Infusion US-Azjol-Nerub
24 02 May 2013 04:25 814.90M 3071014.0 /Hug US-Mannoroth
25 25 Jul 2013 04:25 811.38M 3054896.1 Triarii US-Dragonblight
26 23 May 2013 04:27 818.65M 3064812.5 Thrust US-Dark Iron
27 21 May 2013 04:27 832.78M 3111336.7 Foursquare US-Kel'Thuzad
28 30 May 2013 04:27 826.69M 3087358.0 EndGame EU-Al'Akir
29 04 Jun 2013 04:28 825.76M 3076766.1 DroadWorld US-Malfurion
30 02 May 2013 04:28 818.30M 3048964.1 Paradigm Shift US-Stormrage
31 02 Jun 2013 04:29 834.10M 3095239.4 Electric Sheep US-Kargath
32 02 Jun 2013 04:30 819.66M 3029920.9 Echøes EU-Blackhand
33 17 Jul 2013 04:31 825.85M 3037969.8 Solace US-Blackrock
34 03 Jun 2013 04:32 823.08M 3024880.8 Dawn of the Dead US-Zul'jin
35 16 May 2013 04:32 821.66M 3013498.2 Core EU-Gorgonnash
36 01 May 2013 04:34 827.22M 3012446.2 Waifu Club US-Bleeding Hollow
37 19 May 2013 04:35 823.11M 2984134.5 Ash EU-Kazzak
38 16 May 2013 04:36 819.58M 2966768.6 Экзорсус EU-Ревущий фьорд
39 03 Jun 2013 04:36 837.13M 3026893.4 Phoenix EU-Silvermoon
40 20 May 2013 04:37 829.67M 2992965.7 Ayahuasca EU-Durotan
41 16 May 2013 04:38 828.99M 2981541.0 The Horsemen US-Shadowmoon
42 28 May 2013 04:38 818.96M 2944412.7 Carpe Noctem EU-Silvermoon
43 22 May 2013 04:38 825.63M 2962993.5 Conviction EU-Arathor
44 22 May 2013 04:38 825.63M 2962876.6 Conviction EU-Arathor
45 31 May 2013 04:38 820.22M 2943011.6 Accidents Happen US-Mal'Ganis
46 30 May 2013 04:39 824.76M 2955491.2 A Necessary Evil EU-Hellfire
47 29 Apr 2013 04:40 825.22M 2943977.9 Fallen II US-Tichondrius
48 19 May 2013 04:41 829.41M 2951035.6 Si Vis Pacem Parabellum EU-Sargeras
49 09 May 2013 04:41 836.08M 2966527.7 Victory or Whatever US-Whisperwind
50 19 May 2013 04:41 817.84M 2900237.6 Emerald EU-Dalaran
51 23 May 2013 04:42 824.01M 2922021.2 Solution Gig US-Greymane
52 03 Jun 2013 04:42 824.55M 2918175.3 Civitas EU-Ravencrest
53 29 Aug 2013 04:42 821.65M 2903680.2 Triarii US-Dragonblight
54 29 Aug 2013 04:42 821.65M 2903567.3 Triarii US-Dragonblight
55 03 Jun 2013 04:44 819.40M 2880010.5 Last Judgement EU-Kilrogg
56 03 Jun 2013 04:44 819.40M 2879919.4 Zorix EU-Outland
57 23 May 2013 04:44 828.34M 2909376.5 The Church US-Darkspear
58 28 May 2013 04:45 830.04M 2903310.9 Ehre und Staerke EU-Blackmoore
59 08 May 2013 04:46 819.09M 2857133.1 Paradigm Shift US-Stormrage
60 23 May 2013 04:48 834.37M 2894242.5 Forgotten Aspects US-Hyjal
61 16 May 2013 04:48 831.90M 2881683.4 Brogger's Loggers US-Kil'jaeden
62 30 Jul 2013 04:48 829.29M 2869978.9 Triarii US-Dragonblight
63 03 Jun 2013 04:49 822.16M 2835421.7 Wipefest EU-Ragnaros
64 29 May 2013 04:50 818.65M 2820708.6 Advent Fury US-Hyjal
65 03 Sep 2013 04:50 830.39M 2857014.5 My Other Mount is Tauren US-Aerie Peak
66 05 May 2013 04:51 829.89M 2847852.5 Рассвет EU-Пиратская бухта
67 30 Apr 2013 04:51 820.36M 2812874.0 D I A O US-Illidan
68 10 Apr 2013 04:51 830.83M 2848370.9 The Fabled US-Hyjal
69 15 May 2013 04:51 832.51M 2852181.1 Vanguard EU-Kazzak
70 18 May 2013 04:53 836.10M 2852118.3 Cadenza US-Tichondrius
71 28 May 2013 04:53 831.49M 2834450.8 Seraph US-Mal'Ganis
72 30 May 2013 04:53 819.00M 2790338.9 ОРДА СМЕРТИ EU-Ткач Смерти
73 13 May 2013 04:54 832.32M 2826338.4 Infusion US-Azjol-Nerub
74 16 Apr 2013 04:55 823.06M 2786059.9 Eternal Reign US-Lightbringer
75 06 May 2013 04:55 828.33M 2803455.8 Blue Label US-Barthilas
76 21 Apr 2013 04:55 827.48M 2800372.5 Eclipse EU-Dalaran
77 04 Jun 2013 04:55 821.66M 2778261.8 Pendulum EU-Kazzak
78 27 May 2013 04:55 828.31M 2799249.7 High Quality EU-C'Thun
79 28 Apr 2013 04:57 838.28M 2815626.6 Moronic Impression EU-Frostwhisper
80 04 Jun 2013 04:58 828.18M 2778564.2 Local Defense US-Ner'zhul
81 02 May 2013 04:58 838.01M 2809001.1 Там Разберёмся EU-Разувий
82 27 May 2013 04:58 839.68M 2809134.7 Infernales EU-Teldrassil
83 01 May 2013 04:59 835.87M 2794449.3 Vox Radix US-Darkspear
84 13 May 2013 04:59 837.44M 2796425.1 Happy Tree Friends US-Ragnaros
85 13 May 2013 05:00 838.56M 2786200.4 Brogger's Loggers US-Kil'jaeden
86 12 May 2013 05:00 834.25M 2771711.9 Happy Fun Zone US-Eredar
87 05 May 2013 05:01 835.40M 2773803.7 Unknown Entity EU-Sylvanas
88 05 May 2013 05:01 835.40M 2773288.0 Faceråll rank mofo EU-Ravencrest
89 24 Apr 2013 05:01 826.68M 2739019.6 Reckless US-Skullcrusher
90 03 Jun 2013 05:02 830.00M 2741721.6 Tangled Wire EU-Drak'thul
91 25 Apr 2013 05:03 839.97M 2766602.7 Crimson US-Caelestrasz
92 21 May 2013 05:04 846.86M 2782882.1 Reckless US-Skullcrusher
93 21 May 2013 05:04 827.57M 2718316.6 Skunkworks US-Stormreaver
94 21 May 2013 05:05 837.63M 2744545.4 Tempest Rises US-Bleeding Hollow
95 05 May 2013 05:06 843.21M 2750872.6 E X O D U S EU-Aggramar
96 23 Apr 2013 05:06 851.52M 2775055.3 The Horsemen US-Shadowmoon
97 20 May 2013 05:09 838.10M 2706217.6 Serious Casual - RUM US-Mal'Ganis
98 02 Jun 2013 05:09 856.39M 2763104.3 The Hive EU-Cho’gall
99 09 May 2013 05:10 838.19M 2702130.1 Divine Vigilance US-Sargeras
100 30 Jul 2013 05:12 840.15M 2684435.7 The DMZ EU-Eonar

Please do not close the page with the ad you want to report.

I've posted a guide on how to report misbehaving ads on the forum. Please follow the instructions and help make the internet a safer place. Thanks for you time.